Time;durP1;ratioP1;P1;durP2;ratioP2;P2;SDS_P1;SDS_P2;PMS_P1;PMS_P2;Temp;Humidity;BMP_temperature;BMP_pressure;BME280_temperature;BME280_humidity;BME280_pressure;Samples;Min_cycle;Max_cycle;Signal;HPM_P1;HPM_P2
2023/08/27 00:01:18;;;;;;;9.43;4.30;;;16.40;66.80;;;;;;5050934;28;20389;-76
2023/08/27 00:03:44;;;;;;;7.07;4.63;;;16.30;66.90;;;;;;5051283;28;20509;-75
2023/08/27 00:06:10;;;;;;;9.75;4.35;;;16.30;66.80;;;;;;5049894;28;20398;-75
2023/08/27 00:08:35;;;;;;;8.60;4.60;;;16.20;67.10;;;;;;5051305;28;20543;-75
2023/08/27 00:11:03;;;;;;;10.70;4.72;;;16.20;67.00;;;;;;5051967;28;20440;-75
2023/08/27 00:13:29;;;;;;;11.20;4.63;;;16.20;67.90;;;;;;5053297;28;20858;-74
2023/08/27 00:15:55;;;;;;;6.25;4.20;;;16.20;67.70;;;;;;5054057;28;20397;-76
2023/08/27 00:18:20;;;;;;;10.07;5.00;;;16.30;67.10;;;;;;5052532;28;20389;-76
2023/08/27 00:20:47;;;;;;;7.20;4.70;;;16.30;67.50;;;;;;5051672;28;20510;-75
2023/08/27 00:23:13;;;;;;;6.97;4.55;;;16.30;67.10;;;;;;5051025;28;20396;-75
2023/08/27 00:25:39;;;;;;;9.15;4.50;;;16.20;67.80;;;;;;5050362;28;20381;-76
2023/08/27 00:28:04;;;;;;;9.57;4.30;;;16.10;69.80;;;;;;5051753;28;20401;-74
2023/08/27 00:30:30;;;;;;;12.00;4.30;;;16.10;70.40;;;;;;5054718;28;20451;-75
2023/08/27 00:32:55;;;;;;;7.57;4.03;;;16.10;69.40;;;;;;5055086;28;20393;-75
2023/08/27 00:35:21;;;;;;;6.83;4.33;;;16.00;70.30;;;;;;5055068;28;20409;-75
2023/08/27 00:37:46;;;;;;;4.65;3.60;;;16.00;70.60;;;;;;5055580;28;20377;-75
2023/08/27 00:40:13;;;;;;;7.10;3.70;;;16.00;71.40;;;;;;5056335;28;20385;-76
2023/08/27 00:42:38;;;;;;;7.55;4.20;;;15.90;73.20;;;;;;5055091;28;20386;-76
2023/08/27 00:45:05;;;;;;;9.60;4.40;;;15.80;74.20;;;;;;5057859;28;20454;-75
2023/08/27 00:47:31;;;;;;;7.88;4.28;;;15.60;75.90;;;;;;5056472;28;20882;-75
2023/08/27 00:49:57;;;;;;;6.20;4.20;;;15.60;77.70;;;;;;5053984;28;20436;-75
2023/08/27 00:52:23;;;;;;;6.60;4.47;;;15.60;78.30;;;;;;5054004;28;20380;-75
2023/08/27 00:54:51;;;;;;;8.70;4.40;;;15.60;77.70;;;;;;5053988;28;20767;-75
2023/08/27 00:57:18;;;;;;;7.03;4.20;;;15.60;78.10;;;;;;5053817;28;20727;-75
2023/08/27 00:59:44;;;;;;;5.75;4.00;;;15.50;79.10;;;;;;5053942;28;20867;-76
2023/08/27 01:02:10;;;;;;;9.45;4.28;;;15.40;80.80;;;;;;5051719;28;20488;-76
2023/08/27 01:04:35;;;;;;;5.38;4.32;;;15.40;81.90;;;;;;5053628;28;20838;-76
2023/08/27 01:07:15;;;;;;;5.70;3.57;;;15.60;79.20;;;;;;5053894;28;20443;-79
2023/08/27 01:09:48;;;;;;;7.10;4.15;;;15.50;78.80;;;;;;5054468;28;20446;-75
2023/08/27 01:12:33;;;;;;;7.88;4.50;;;15.40;80.30;;;;;;5068800;23;20861;-71
2023/08/27 01:15:01;;;;;;;21.80;13.48;;;15.30;81.50;;;;;;5033641;28;20477;-71
2023/08/27 01:17:27;;;;;;;9.15;5.68;;;15.20;82.60;;;;;;5040799;28;20407;-70
2023/08/27 01:19:53;;;;;;;8.70;4.40;;;15.20;81.70;;;;;;5048419;28;20841;-71
2023/08/27 01:22:19;;;;;;;9.23;4.80;;;15.20;82.20;;;;;;5052470;28;20421;-72
2023/08/27 01:24:44;;;;;;;8.40;4.53;;;15.10;82.20;;;;;;5053405;28;20788;-71
2023/08/27 01:27:27;;;;;;;6.40;4.18;;;15.10;81.50;;;;;;5042871;28;20395;-70
2023/08/27 01:30:10;;;;;;;6.57;4.13;;;15.10;81.00;;;;;;5032562;28;20472;-70
2023/08/27 01:32:47;;;;;;;4.40;3.90;;;15.10;80.10;;;;;;5032523;28;20379;-70
2023/08/27 01:35:14;;;;;;;6.70;4.30;;;15.10;80.40;;;;;;5032665;28;20380;-70
2023/08/27 01:37:40;;;;;;;5.47;4.40;;;15.10;79.50;;;;;;5032565;28;20934;-71
2023/08/27 01:40:06;;;;;;;7.07;4.43;;;15.00;79.80;;;;;;5032376;28;20383;-70
2023/08/27 01:42:33;;;;;;;5.68;4.70;;;15.00;81.80;;;;;;5032190;28;20386;-70
2023/08/27 01:44:59;;;;;;;10.40;4.80;;;15.00;80.80;;;;;;5032347;28;20415;-70
2023/08/27 01:47:24;;;;;;;6.88;4.30;;;15.00;79.90;;;;;;5032285;28;20815;-70
2023/08/27 01:49:50;;;;;;;8.38;4.45;;;15.00;80.60;;;;;;5032088;28;20776;-70
2023/08/27 01:52:16;;;;;;;5.32;4.50;;;15.00;80.10;;;;;;5031986;28;20743;-70
2023/08/27 01:54:41;;;;;;;7.25;4.30;;;15.10;78.50;;;;;;5029931;28;20372;-70
2023/08/27 01:57:07;;;;;;;6.80;4.60;;;15.10;77.80;;;;;;5032175;28;20380;-70
2023/08/27 01:59:32;;;;;;;6.70;4.50;;;15.10;78.10;;;;;;5031993;28;20767;-70
2023/08/27 02:01:58;;;;;;;6.25;4.55;;;15.10;78.40;;;;;;5031914;28;20736;-70
2023/08/27 02:04:23;;;;;;;9.27;4.63;;;15.00;78.90;;;;;;5031918;28;20383;-70
2023/08/27 02:06:49;;;;;;;6.60;4.50;;;15.00;78.80;;;;;;5031956;28;20462;-70
2023/08/27 02:09:15;;;;;;;8.40;4.40;;;14.90;80.20;;;;;;5031819;28;20410;-70
2023/08/27 02:11:41;;;;;;;6.80;4.20;;;14.90;81.20;;;;;;5031254;28;20898;-70
2023/08/27 02:14:07;;;;;;;5.93;4.20;;;14.90;81.30;;;;;;5031680;28;20415;-70
2023/08/27 02:16:34;;;;;;;7.67;4.83;;;14.90;80.40;;;;;;5031653;28;20492;-70
2023/08/27 02:19:00;;;;;;;9.32;4.60;;;15.00;80.20;;;;;;5031551;28;20744;-70
2023/08/27 02:21:25;;;;;;;7.47;4.90;;;15.00;80.30;;;;;;5031865;28;20379;-70
2023/08/27 02:23:51;;;;;;;7.30;4.20;;;15.00;79.70;;;;;;5031690;28;20383;-70
2023/08/27 02:26:18;;;;;;;8.60;4.20;;;15.10;79.40;;;;;;5031015;28;20552;-70
2023/08/27 02:28:46;;;;;;;7.43;4.30;;;15.20;77.40;;;;;;5031663;28;20498;-70
2023/08/27 02:31:12;;;;;;;6.78;4.20;;;15.20;76.80;;;;;;5031387;28;20876;-70
2023/08/27 02:33:39;;;;;;;6.10;4.03;;;15.10;77.70;;;;;;5031442;28;20379;-70
2023/08/27 02:36:04;;;;;;;6.28;3.90;;;15.10;78.60;;;;;;5031297;28;20391;-70
2023/08/27 02:38:30;;;;;;;7.40;4.30;;;15.00;79.80;;;;;;5031332;28;20775;-70
2023/08/27 02:40:55;;;;;;;6.45;3.92;;;14.90;79.90;;;;;;5030946;28;20386;-70
2023/08/27 02:43:21;;;;;;;8.50;4.00;;;14.90;80.60;;;;;;5031351;28;20383;-70
2023/08/27 02:45:47;;;;;;;4.93;4.40;;;14.90;80.60;;;;;;5031313;28;20449;-70
2023/08/27 02:48:13;;;;;;;5.75;4.20;;;14.80;80.80;;;;;;5031284;28;20398;-70
2023/08/27 02:50:38;;;;;;;5.87;4.00;;;14.80;81.70;;;;;;5031014;28;20439;-70
2023/08/27 02:53:04;;;;;;;7.17;4.43;;;14.90;81.10;;;;;;5030874;28;20492;-70
2023/08/27 02:55:31;;;;;;;5.70;4.50;;;14.80;81.10;;;;;;5030839;28;20436;-70
2023/08/27 02:57:57;;;;;;;6.55;4.00;;;14.80;81.20;;;;;;5030982;28;20460;-70
2023/08/27 03:00:23;;;;;;;6.38;4.10;;;14.70;82.20;;;;;;5030817;28;20876;-70
2023/08/27 03:02:49;;;;;;;6.13;4.40;;;14.70;83.60;;;;;;5030577;28;20386;-70
2023/08/27 03:05:14;;;;;;;5.20;4.33;;;14.70;83.00;;;;;;5030971;28;20375;-70
2023/08/27 03:07:40;;;;;;;4.53;4.07;;;14.70;84.10;;;;;;5030670;28;20419;-70
2023/08/27 03:10:06;;;;;;;5.87;4.30;;;14.70;84.60;;;;;;5030523;28;20991;-70
2023/08/27 03:12:31;;;;;;;4.95;4.10;;;14.70;82.80;;;;;;5031097;28;20947;-70
2023/08/27 03:14:58;;;;;;;7.27;4.10;;;14.60;83.10;;;;;;5030756;28;20391;-70
2023/08/27 03:17:23;;;;;;;6.87;4.20;;;14.60;83.20;;;;;;5030935;28;20503;-70
2023/08/27 03:19:49;;;;;;;7.20;4.20;;;14.70;81.60;;;;;;5030967;28;20434;-70
2023/08/27 03:22:14;;;;;;;8.30;4.10;;;14.70;80.30;;;;;;5030545;28;20426;-70
2023/08/27 03:24:40;;;;;;;5.25;3.58;;;14.80;78.60;;;;;;5030677;28;20418;-70
2023/08/27 03:27:07;;;;;;;5.27;3.90;;;14.80;78.80;;;;;;5030547;28;20478;-70
2023/08/27 03:29:32;;;;;;;5.80;3.92;;;14.70;78.10;;;;;;5030771;28;20895;-70
2023/08/27 03:31:58;;;;;;;6.33;4.33;;;14.70;78.80;;;;;;5030366;28;20391;-70
2023/08/27 03:34:23;;;;;;;7.80;4.60;;;14.70;78.40;;;;;;5030358;28;20474;-70
2023/08/27 03:36:49;;;;;;;7.43;3.85;;;14.70;78.60;;;;;;5030490;28;20467;-70
2023/08/27 03:39:15;;;;;;;4.10;3.10;;;14.70;78.10;;;;;;5030119;28;20429;-70
2023/08/27 03:41:41;;;;;;;5.65;4.10;;;14.60;78.80;;;;;;5029896;28;20464;-72
2023/08/27 03:44:06;;;;;;;9.68;4.60;;;14.60;80.20;;;;;;5030408;28;20387;-71
2023/08/27 03:46:32;;;;;;;6.95;3.80;;;14.60;79.60;;;;;;5030443;28;20421;-71
2023/08/27 03:49:00;;;;;;;4.17;3.70;;;14.50;81.00;;;;;;5030534;28;20904;-70
2023/08/27 03:51:28;;;;;;;7.63;3.90;;;14.60;79.20;;;;;;5030996;28;20379;-70
2023/08/27 03:53:57;;;;;;;7.55;3.95;;;14.60;79.10;;;;;;5030387;28;20783;-70
2023/08/27 03:56:23;;;;;;;5.30;4.00;;;14.60;78.10;;;;;;5030450;28;20387;-70
2023/08/27 03:58:49;;;;;;;3.70;3.40;;;14.60;78.90;;;;;;5030291;28;20894;-70
2023/08/27 04:01:14;;;;;;;5.10;3.80;;;14.60;79.50;;;;;;5029887;28;20409;-70
2023/08/27 04:03:40;;;;;;;4.65;3.60;;;14.60;79.60;;;;;;5030563;28;20387;-70
2023/08/27 04:06:10;;;;;;;5.95;3.65;;;14.70;78.80;;;;;;5030094;28;20387;-71
2023/08/27 04:08:39;;;;;;;6.53;3.55;;;14.80;76.60;;;;;;5030084;28;20445;-70
2023/08/27 04:11:04;;;;;;;6.53;3.67;;;14.80;76.50;;;;;;5030033;28;20422;-70
2023/08/27 04:13:30;;;;;;;7.32;3.50;;;14.80;76.20;;;;;;5030576;28;20790;-70
2023/08/27 04:16:07;;;;;;;3.45;3.00;;;14.80;76.10;;;;;;5030655;28;20466;-70
2023/08/27 04:18:33;;;;;;;7.05;3.88;;;14.80;76.10;;;;;;5031872;28;20383;-70
2023/08/27 04:20:58;;;;;;;6.70;3.70;;;14.90;74.60;;;;;;5034219;28;20425;-72
2023/08/27 04:23:24;;;;;;;5.13;3.08;;;14.90;73.80;;;;;;5034236;28;20897;-71
2023/08/27 04:25:49;;;;;;;7.68;3.33;;;15.00;73.50;;;;;;5034358;28;20840;-70
2023/08/27 04:28:15;;;;;;;5.03;4.07;;;15.00;71.90;;;;;;5034252;28;20930;-70
2023/08/27 04:30:41;;;;;;;5.00;3.90;;;15.10;71.20;;;;;;5034023;28;20767;-70
2023/08/27 04:33:07;;;;;;;8.45;3.55;;;15.10;71.30;;;;;;5033685;28;20418;-70
2023/08/27 04:35:33;;;;;;;3.67;3.38;;;15.10;71.10;;;;;;5034318;28;20430;-70
2023/08/27 04:37:58;;;;;;;4.35;3.20;;;15.10;69.90;;;;;;5033758;28;20553;-70
2023/08/27 04:40:24;;;;;;;4.27;3.20;;;15.10;70.00;;;;;;5033839;28;20390;-70
2023/08/27 04:42:49;;;;;;;5.53;3.80;;;15.30;68.20;;;;;;5033708;28;20390;-70
2023/08/27 04:45:15;;;;;;;4.20;3.30;;;15.30;68.90;;;;;;5034163;28;20779;-70
2023/08/27 04:47:41;;;;;;;5.85;3.90;;;15.40;67.70;;;;;;5033858;28;20788;-70
2023/08/27 04:50:08;;;;;;;8.00;4.07;;;15.40;69.20;;;;;;5033518;28;20780;-70
2023/08/27 04:52:34;;;;;;;9.77;4.35;;;15.40;70.90;;;;;;5033244;28;20387;-70
2023/08/27 04:55:01;;;;;;;8.25;4.50;;;15.40;73.40;;;;;;5033365;28;20419;-70
2023/08/27 04:57:26;;;;;;;4.80;3.78;;;15.40;74.10;;;;;;5033459;28;20379;-70
2023/08/27 04:59:53;;;;;;;6.57;4.22;;;15.40;73.90;;;;;;5033320;28;20955;-70
2023/08/27 05:02:19;;;;;;;4.30;3.87;;;15.50;75.50;;;;;;5032959;28;20902;-70
2023/08/27 05:04:45;;;;;;;8.00;4.40;;;15.40;76.20;;;;;;5033229;28;20379;-70
2023/08/27 05:07:11;;;;;;;8.02;4.10;;;15.40;78.70;;;;;;5033190;28;20895;-70
2023/08/27 05:09:36;;;;;;;7.20;3.93;;;15.40;79.10;;;;;;5033117;28;20411;-70
2023/08/27 05:12:02;;;;;;;6.05;4.30;;;15.40;80.80;;;;;;5032511;28;20399;-70
2023/08/27 05:14:27;;;;;;;7.05;3.67;;;15.40;80.50;;;;;;5033410;28;20429;-70
2023/08/27 05:16:53;;;;;;;6.53;3.80;;;15.60;79.20;;;;;;5032867;28;20398;-70
2023/08/27 05:19:19;;;;;;;4.50;3.72;;;15.60;77.90;;;;;;5033018;28;20415;-70
2023/08/27 05:21:45;;;;;;;5.75;3.80;;;15.70;75.80;;;;;;5032702;28;20410;-70
2023/08/27 05:24:10;;;;;;;8.27;4.40;;;15.70;77.80;;;;;;5032840;28;20391;-70
2023/08/27 05:26:36;;;;;;;8.10;4.00;;;15.60;78.90;;;;;;5032979;28;20482;-70
2023/08/27 05:29:01;;;;;;;6.68;4.35;;;15.70;77.50;;;;;;5032613;28;20418;-70
2023/08/27 05:31:27;;;;;;;8.63;4.90;;;15.70;78.80;;;;;;5032453;28;20383;-70
2023/08/27 05:33:53;;;;;;;6.93;4.30;;;15.70;79.80;;;;;;5032667;28;20441;-70
2023/08/27 05:36:20;;;;;;;11.17;4.90;;;15.90;80.50;;;;;;5032885;28;20403;-70
2023/08/27 05:38:45;;;;;;;8.00;3.90;;;15.90;78.20;;;;;;5032945;28;20394;-71
2023/08/27 05:41:11;;;;;;;10.00;4.30;;;15.90;78.60;;;;;;5033353;28;20394;-71
2023/08/27 05:43:36;;;;;;;10.95;5.30;;;16.00;80.60;;;;;;5032566;28;20391;-71
2023/08/27 05:46:02;;;;;;;7.73;4.90;;;16.20;80.10;;;;;;5032402;28;20567;-71
2023/08/27 05:48:28;;;;;;;5.25;4.30;;;16.30;78.80;;;;;;5032947;28;20387;-71
2023/08/27 05:50:53;;;;;;;9.03;4.60;;;16.30;77.20;;;;;;5032222;28;20382;-71
2023/08/27 05:53:19;;;;;;;9.85;4.78;;;16.30;76.80;;;;;;5032202;28;20389;-71
2023/08/27 05:55:44;;;;;;;12.47;5.20;;;16.30;75.60;;;;;;5032249;28;20381;-71
2023/08/27 05:58:10;;;;;;;8.00;5.03;;;16.40;75.90;;;;;;5032306;28;20462;-71
2023/08/27 06:00:36;;;;;;;6.75;4.45;;;16.40;76.40;;;;;;5032065;28;20442;-71
2023/08/27 06:03:01;;;;;;;10.07;5.70;;;16.30;77.20;;;;;;5031780;28;20383;-71
2023/08/27 06:05:27;;;;;;;7.43;4.97;;;16.30;78.40;;;;;;5031989;28;20926;-71
2023/08/27 06:07:52;;;;;;;6.83;4.40;;;16.30;79.10;;;;;;5031818;28;20470;-71
2023/08/27 06:10:18;;;;;;;9.37;5.73;;;16.30;77.60;;;;;;5031503;28;20407;-71
2023/08/27 06:12:44;;;;;;;8.98;4.95;;;16.30;78.60;;;;;;5031660;28;20761;-70
2023/08/27 06:15:09;;;;;;;9.20;5.40;;;16.30;77.90;;;;;;5031646;28;20415;-70
2023/08/27 06:17:35;;;;;;;6.10;4.83;;;16.30;78.90;;;;;;5031700;28;20422;-70
2023/08/27 06:20:01;;;;;;;8.47;4.30;;;16.20;80.80;;;;;;5031685;28;20395;-70
2023/08/27 06:22:26;;;;;;;6.53;3.80;;;16.20;80.70;;;;;;5031604;28;20697;-70
2023/08/27 06:24:52;;;;;;;6.07;3.80;;;16.30;74.20;;;;;;5031450;28;21173;-71
2023/08/27 06:27:17;;;;;;;4.97;4.17;;;16.50;72.40;;;;;;5031362;28;20391;-71
2023/08/27 06:29:44;;;;;;;6.30;3.23;;;16.60;66.30;;;;;;5031243;28;20395;-71
2023/08/27 06:32:10;;;;;;;3.38;2.90;;;16.70;66.00;;;;;;5031086;28;20486;-72
2023/08/27 06:34:35;;;;;;;4.50;3.10;;;16.80;61.90;;;;;;5031311;28;20482;-70
2023/08/27 06:37:01;;;;;;;5.70;3.38;;;16.90;60.70;;;;;;5030240;28;20422;-71
2023/08/27 06:39:26;;;;;;;10.37;4.57;;;17.10;59.40;;;;;;5033052;28;20399;-71
2023/08/27 06:41:52;;;;;;;8.03;3.70;;;17.40;59.00;;;;;;5031347;28;20482;-71
2023/08/27 06:44:19;;;;;;;6.32;3.75;;;17.40;58.20;;;;;;5031346;28;20473;-71
2023/08/27 06:46:45;;;;;;;3.90;3.50;;;17.30;59.70;;;;;;5031575;28;20865;-70
2023/08/27 06:49:10;;;;;;;6.53;4.03;;;17.30;58.40;;;;;;5031789;28;20441;-71
2023/08/27 06:51:36;;;;;;;4.60;3.67;;;17.30;62.40;;;;;;5031095;28;20394;-71
2023/08/27 06:54:01;;;;;;;5.43;3.90;;;17.40;61.20;;;;;;5032662;28;20466;-72
2023/08/27 06:56:27;;;;;;;7.97;4.10;;;17.50;60.70;;;;;;5031505;28;20393;-71
2023/08/27 06:58:53;;;;;;;5.23;3.70;;;17.50;61.00;;;;;;5030646;28;20395;-71
2023/08/27 07:01:18;;;;;;;7.10;4.00;;;17.70;56.80;;;;;;5030860;28;20379;-70
2023/08/27 07:03:44;;;;;;;5.20;3.60;;;17.70;56.30;;;;;;5030930;28;21032;-70
2023/08/27 07:06:09;;;;;;;7.50;4.20;;;17.90;53.70;;;;;;5030978;28;20389;-71
2023/08/27 07:08:35;;;;;;;5.83;3.47;;;18.10;53.30;;;;;;5031084;28;20478;-71
2023/08/27 07:11:03;;;;;;;5.80;4.00;;;18.30;51.50;;;;;;5044189;23;20439;-77
2023/08/27 07:13:29;;;;;;;4.95;4.30;;;18.40;49.00;;;;;;5033356;28;20383;-76
2023/08/27 07:15:54;;;;;;;6.38;4.07;;;18.70;46.80;;;;;;5032058;28;20379;-76
2023/08/27 07:18:20;;;;;;;6.32;3.92;;;18.70;46.90;;;;;;5014822;28;20386;-75
2023/08/27 07:20:47;;;;;;;7.43;4.53;;;18.90;47.60;;;;;;5031831;28;20383;-76
2023/08/27 07:23:12;;;;;;;6.63;3.97;;;18.80;46.30;;;;;;5031634;28;20391;-75
2023/08/27 07:25:38;;;;;;;6.90;4.90;;;18.70;44.60;;;;;;5032136;28;20383;-75
2023/08/27 07:28:04;;;;;;;8.65;6.45;;;18.70;45.30;;;;;;5030657;28;20383;-75
2023/08/27 07:30:31;;;;;;;10.90;7.20;;;18.60;45.20;;;;;;5032216;28;20475;-75
2023/08/27 07:32:57;;;;;;;8.55;6.10;;;18.30;47.00;;;;;;5032677;28;20848;-76
2023/08/27 07:35:22;;;;;;;8.25;5.70;;;18.20;47.20;;;;;;5031484;28;20390;-76
2023/08/27 07:37:49;;;;;;;9.60;5.87;;;18.20;48.00;;;;;;5032385;28;20813;-75
2023/08/27 07:40:15;;;;;;;8.45;4.90;;;18.20;49.50;;;;;;5032224;28;20391;-76
2023/08/27 07:42:40;;;;;;;6.60;5.15;;;18.20;48.40;;;;;;5032348;28;20747;-75
2023/08/27 07:45:07;;;;;;;7.85;5.13;;;18.10;48.60;;;;;;5032917;28;20379;-76
2023/08/27 07:47:33;;;;;;;9.70;5.25;;;18.00;50.20;;;;;;5031626;28;20487;-76
2023/08/27 07:49:59;;;;;;;9.35;6.00;;;18.00;50.50;;;;;;5032154;28;20399;-76
2023/08/27 07:52:25;;;;;;;11.10;5.15;;;17.80;53.90;;;;;;5030929;28;20391;-76
2023/08/27 07:54:50;;;;;;;5.53;4.70;;;17.90;55.20;;;;;;5035505;28;20379;-75
2023/08/27 07:57:16;;;;;;;8.95;5.07;;;17.90;53.00;;;;;;5036417;28;20454;-75
2023/08/27 07:59:43;;;;;;;10.00;5.72;;;18.00;50.20;;;;;;5035160;28;20391;-75
2023/08/27 08:02:08;;;;;;;7.03;5.70;;;18.10;50.80;;;;;;5041343;28;20402;-76
2023/08/27 08:04:34;;;;;;;8.48;5.30;;;18.10;50.90;;;;;;5041307;28;20391;-76
2023/08/27 08:07:00;;;;;;;7.20;5.17;;;18.10;50.40;;;;;;5047247;28;20387;-75
2023/08/27 08:09:25;;;;;;;6.68;4.75;;;18.20;48.40;;;;;;5053823;28;20403;-77
2023/08/27 08:11:51;;;;;;;7.72;4.70;;;18.30;47.50;;;;;;5053583;28;20406;-75
2023/08/27 08:14:17;;;;;;;6.90;4.67;;;18.40;48.10;;;;;;5040261;28;20823;-76
2023/08/27 08:16:43;;;;;;;5.93;4.33;;;18.40;45.40;;;;;;5036900;28;20383;-77
2023/08/27 08:19:09;;;;;;;6.43;4.10;;;18.60;45.30;;;;;;5036670;28;20748;-76
2023/08/27 08:21:35;;;;;;;5.22;4.20;;;18.90;44.20;;;;;;5036266;28;20383;-76
2023/08/27 08:24:01;;;;;;;10.32;3.80;;;19.30;43.20;;;;;;5036413;28;20379;-76
2023/08/27 08:26:27;;;;;;;7.05;3.80;;;19.90;41.20;;;;;;5037155;28;20387;-76
2023/08/27 08:28:52;;;;;;;6.77;4.00;;;20.30;39.00;;;;;;5036933;28;20445;-77
2023/08/27 08:31:18;;;;;;;3.73;2.80;;;20.60;36.30;;;;;;5036219;28;20395;-75
2023/08/27 08:33:44;;;;;;;5.90;2.60;;;20.70;34.80;;;;;;5035347;28;20383;-76
2023/08/27 08:36:09;;;;;;;4.60;2.73;;;20.80;34.30;;;;;;5035202;28;20843;-76
2023/08/27 08:38:35;;;;;;;3.90;2.60;;;20.70;33.10;;;;;;5036459;28;20819;-75
2023/08/27 08:41:03;;;;;;;3.75;2.03;;;20.90;31.80;;;;;;5036588;28;20383;-75
2023/08/27 08:43:44;;;;;;;2.30;2.10;;;21.10;31.30;;;;;;5035559;28;20379;-76
2023/08/27 08:46:13;;;;;;;6.82;2.90;;;21.00;31.40;;;;;;5035164;28;20386;-76
2023/08/27 08:48:41;;;;;;;4.10;1.80;;;20.90;32.30;;;;;;5034246;28;20391;-77
2023/08/27 08:51:12;;;;;;;2.63;1.80;;;21.00;30.20;;;;;;5033687;28;20504;-76
2023/08/27 08:53:46;;;;;;;4.28;1.90;;;20.90;28.50;;;;;;5035652;28;20474;-76
2023/08/27 08:56:26;;;;;;;5.20;2.10;;;20.70;29.10;;;;;;5035089;28;20847;-76
2023/08/27 08:58:56;;;;;;;6.53;2.13;;;20.60;30.50;;;;;;5036742;28;20398;-77
2023/08/27 09:01:22;;;;;;;5.45;2.00;;;20.60;30.70;;;;;;5037290;28;20423;-76
2023/08/27 09:03:49;;;;;;;4.05;2.05;;;20.70;30.00;;;;;;5034982;28;20387;-76
2023/08/27 09:06:19;;;;;;;5.00;2.30;;;20.70;30.40;;;;;;5037052;28;20448;-76
2023/08/27 09:08:46;;;;;;;3.30;1.80;;;20.70;30.10;;;;;;5035683;28;20422;-75
2023/08/27 09:11:12;;;;;;;4.40;2.40;;;20.70;30.70;;;;;;5035387;28;20409;-77
2023/08/27 09:13:38;;;;;;;6.72;2.00;;;20.50;31.80;;;;;;5036369;28;20464;-77
2023/08/27 09:16:06;;;;;;;2.75;2.08;;;20.50;32.70;;;;;;5036364;28;20433;-76
2023/08/27 09:18:32;;;;;;;5.65;2.15;;;20.30;33.20;;;;;;5035144;28;20670;-76
2023/08/27 09:20:59;;;;;;;6.65;2.28;;;20.20;32.60;;;;;;5034329;28;20417;-75
2023/08/27 09:23:25;;;;;;;3.88;2.38;;;20.30;32.10;;;;;;5034911;28;20471;-75
2023/08/27 09:25:58;;;;;;;5.80;2.40;;;20.50;31.30;;;;;;5035941;28;20783;-76
2023/08/27 09:28:24;;;;;;;4.18;2.17;;;20.50;31.90;;;;;;5035791;28;20375;-77
2023/08/27 09:30:51;;;;;;;3.55;2.47;;;20.70;31.70;;;;;;5033516;28;20415;-77
2023/08/27 09:33:16;;;;;;;10.07;2.70;;;20.60;31.20;;;;;;5015182;28;20381;-75
2023/08/27 09:35:42;;;;;;;4.27;1.90;;;20.60;31.30;;;;;;5014567;28;20385;-76
2023/08/27 09:38:13;;;;;;;4.65;2.28;;;20.70;31.80;;;;;;5029153;28;20395;-75
2023/08/27 09:40:39;;;;;;;4.13;2.00;;;20.80;31.00;;;;;;5033657;28;20398;-74
2023/08/27 09:43:09;;;;;;;4.60;1.90;;;20.90;30.40;;;;;;5033241;28;20436;-74
2023/08/27 09:45:36;;;;;;;3.30;1.88;;;20.90;29.30;;;;;;5032203;28;20398;-76
2023/08/27 09:48:03;;;;;;;2.70;1.65;;;21.00;28.30;;;;;;5033676;28;20395;-73
2023/08/27 09:50:29;;;;;;;2.97;1.70;;;21.30;28.30;;;;;;5023975;28;20407;-72
2023/08/27 09:53:06;;;;;;;4.33;2.00;;;21.70;26.80;;;;;;5033203;28;20391;-72
2023/08/27 09:55:33;;;;;;;4.18;1.58;;;22.00;25.70;;;;;;5033070;28;20383;-73
2023/08/27 09:57:59;;;;;;;4.70;1.80;;;22.20;25.30;;;;;;5032991;28;20837;-72
2023/08/27 10:00:28;;;;;;;2.70;1.60;;;22.20;25.00;;;;;;5033737;28;20383;-73
2023/08/27 10:02:53;;;;;;;5.30;1.60;;;22.10;25.50;;;;;;5033118;28;20383;-73
2023/08/27 10:05:28;;;;;;;3.30;1.90;;;22.10;25.00;;;;;;5025702;28;20415;-72
2023/08/27 10:07:59;;;;;;;2.88;1.50;;;22.30;25.30;;;;;;5029791;28;20394;-75
2023/08/27 10:10:26;;;;;;;4.80;1.60;;;22.50;24.50;;;;;;5044122;28;21045;-74
2023/08/27 10:12:53;;;;;;;2.88;1.80;;;22.60;23.80;;;;;;5021464;28;20452;-74
2023/08/27 10:15:19;;;;;;;3.50;1.70;;;22.50;24.00;;;;;;5030572;28;20835;-74
2023/08/27 10:17:45;;;;;;;4.90;1.80;;;22.40;23.90;;;;;;5025556;28;20750;-74
2023/08/27 10:20:11;;;;;;;3.88;1.67;;;22.20;23.60;;;;;;5032050;28;20399;-74
2023/08/27 10:22:37;;;;;;;4.38;1.67;;;22.20;24.00;;;;;;5033265;28;20410;-76
2023/08/27 10:25:06;;;;;;;4.18;1.60;;;22.20;23.30;;;;;;5033691;28;20906;-72
2023/08/27 10:27:32;;;;;;;3.83;1.80;;;22.10;23.60;;;;;;5025151;28;20430;-73
2023/08/27 10:29:59;;;;;;;4.05;1.92;;;22.40;23.10;;;;;;5034915;28;20411;-75
2023/08/27 10:32:24;;;;;;;3.28;1.60;;;22.70;22.10;;;;;;5035438;28;20803;-74
2023/08/27 10:34:50;;;;;;;3.22;1.60;;;23.00;21.30;;;;;;5037153;28;20409;-75
2023/08/27 10:37:19;;;;;;;2.50;1.80;;;23.00;21.10;;;;;;5036147;28;20384;-73
2023/08/27 10:39:47;;;;;;;2.25;1.65;;;23.00;20.70;;;;;;5037235;28;20868;-76
2023/08/27 10:42:31;;;;;;;3.10;1.60;;;23.00;20.50;;;;;;5034987;28;20402;-74
2023/08/27 10:45:18;;;;;;;2.90;2.10;;;23.20;20.80;;;;;;5034093;28;20387;-74
2023/08/27 10:48:09;;;;;;;2.50;1.40;;;22.80;20.70;;;;;;5032789;28;20472;-75
2023/08/27 10:50:54;;;;;;;2.60;1.55;;;22.50;20.80;;;;;;5036370;28;20560;-73
2023/08/27 10:53:20;;;;;;;3.50;1.80;;;22.40;21.30;;;;;;5036780;28;20468;-74
2023/08/27 10:55:51;;;;;;;3.85;1.80;;;22.00;22.30;;;;;;5038021;28;20551;-75
2023/08/27 10:58:23;;;;;;;2.33;1.60;;;21.60;23.80;;;;;;5035694;28;20391;-74
2023/08/27 11:01:04;;;;;;;7.30;2.90;;;21.30;25.20;;;;;;5038951;28;20526;-77
2023/08/27 11:03:53;;;;;;;4.75;2.50;;;21.40;23.50;;;;;;5038278;28;20388;-74
2023/08/27 11:06:21;;;;;;;6.40;2.50;;;21.40;24.10;;;;;;5033702;28;20755;-74
2023/08/27 11:08:52;;;;;;;2.90;1.63;;;21.70;24.30;;;;;;5034525;28;20894;-74
2023/08/27 11:11:24;;;;;;;4.28;1.60;;;22.10;21.80;;;;;;5033929;28;20406;-73
2023/08/27 11:14:01;;;;;;;3.53;1.80;;;22.70;21.20;;;;;;5033903;28;20780;-74
2023/08/27 11:16:29;;;;;;;5.40;1.70;;;23.20;19.30;;;;;;5031857;28;20783;-75
2023/08/27 11:18:55;;;;;;;3.42;2.10;;;23.30;18.70;;;;;;5031764;28;20399;-75
2023/08/27 11:21:45;;;;;;;5.70;1.98;;;23.40;19.00;;;;;;5031004;28;20403;-75
2023/08/27 11:24:15;;;;;;;3.70;1.70;;;23.40;19.00;;;;;;5031480;28;20775;-73
2023/08/27 11:26:41;;;;;;;2.65;1.70;;;23.50;18.50;;;;;;5031568;28;20417;-75
2023/08/27 11:29:11;;;;;;;3.40;1.70;;;23.70;18.60;;;;;;5032033;28;20406;-76
2023/08/27 11:31:45;;;;;;;3.55;1.70;;;23.90;17.40;;;;;;5030312;28;20536;-76
2023/08/27 11:34:13;;;;;;;3.80;1.80;;;24.00;18.10;;;;;;5031942;28;20383;-74
2023/08/27 11:36:40;;;;;;;2.60;1.40;;;23.90;17.80;;;;;;5031964;28;20407;-74
2023/08/27 11:39:08;;;;;;;3.40;1.30;;;24.20;18.00;;;;;;5032574;28;20455;-76
2023/08/27 11:41:39;;;;;;;3.45;1.40;;;24.30;17.30;;;;;;5033158;28;20395;-75
2023/08/27 11:44:06;;;;;;;3.33;1.55;;;24.40;17.30;;;;;;5032895;28;20890;-73
2023/08/27 11:46:32;;;;;;;3.58;1.60;;;24.40;17.00;;;;;;5032923;28;20437;-74
2023/08/27 11:48:58;;;;;;;3.85;1.60;;;24.50;16.50;;;;;;5032036;28;20884;-75
2023/08/27 11:51:25;;;;;;;3.03;1.80;;;24.20;16.80;;;;;;5033352;28;20401;-74
2023/08/27 11:53:53;;;;;;;4.15;1.60;;;23.90;17.90;;;;;;5034328;28;20441;-74
2023/08/27 11:56:19;;;;;;;3.33;1.80;;;23.80;17.90;;;;;;5035444;28;20389;-74
2023/08/27 11:58:50;;;;;;;3.97;1.70;;;23.70;18.50;;;;;;5033417;28;20457;-73
2023/08/27 12:01:16;;;;;;;2.90;1.40;;;23.30;18.50;;;;;;5035354;28;20382;-74
2023/08/27 12:03:43;;;;;;;9.55;1.85;;;22.80;19.30;;;;;;5034980;28;20395;-74
2023/08/27 12:06:25;;;;;;;5.35;1.60;;;22.40;19.90;;;;;;5016821;28;20872;-76
2023/08/27 12:08:54;;;;;;;3.60;1.50;;;22.20;19.90;;;;;;5014023;28;20377;-73
2023/08/27 12:11:26;;;;;;;3.80;1.70;;;22.10;20.50;;;;;;5025740;28;20421;-75
2023/08/27 12:13:55;;;;;;;3.10;1.50;;;22.20;21.50;;;;;;5032422;28;20510;-74
2023/08/27 12:16:29;;;;;;;2.20;1.30;;;22.30;19.70;;;;;;5028210;28;20430;-74
2023/08/27 12:19:03;;;;;;;3.92;1.50;;;22.10;19.50;;;;;;5030350;28;20745;-74
2023/08/27 12:21:34;;;;;;;4.05;1.40;;;22.00;20.00;;;;;;5029897;28;20511;-76
2023/08/27 12:24:00;;;;;;;3.95;1.60;;;22.10;18.70;;;;;;5038127;28;20387;-75
2023/08/27 12:26:26;;;;;;;3.30;1.50;;;22.30;18.50;;;;;;5035825;28;20935;-74
2023/08/27 12:28:52;;;;;;;5.10;1.40;;;22.60;17.90;;;;;;5034709;28;20394;-76
2023/08/27 12:31:25;;;;;;;7.82;2.10;;;22.90;17.70;;;;;;5034354;28;20390;-78
2023/08/27 12:33:57;;;;;;;4.00;1.60;;;23.00;18.60;;;;;;5035272;28;20394;-77
2023/08/27 12:36:24;;;;;;;2.55;1.52;;;23.00;16.90;;;;;;5034574;28;20472;-72
2023/08/27 12:38:50;;;;;;;3.60;1.60;;;22.70;18.70;;;;;;5041585;28;20399;-75
2023/08/27 12:41:15;;;;;;;3.60;1.70;;;22.60;19.10;;;;;;5040357;28;20466;-76
2023/08/27 12:43:41;;;;;;;3.10;1.70;;;22.50;18.70;;;;;;5039524;28;20509;-74
2023/08/27 12:46:07;;;;;;;3.22;1.60;;;22.40;18.50;;;;;;5040415;28;20387;-77